www.cux-wetter.de
Wetterdaten: Mittwoch, 10.02.2010
Datum Zeit Temp. A. Feuchte A. Luftdruck Regen Wind Richtung Richtung Sonnenschein Solar Taupunkt Windchill Windben
10.02.2010 00:03 -3,1 C 78 % 1008,5 hPa 0,0 l/m 4,6 km/h (1 Bft) O-NO 75 0 min 0 W/m -6,4 C -3,1 C 4,6 km/h (1 Bft)
10.02.2010 00:09 -3,0 C 78 % 1008,5 hPa 0,0 l/m 7,8 km/h (2 Bft) O-NO 70 0 min 0 W/m -6,3 C -4,6 C 7,8 km/h (2 Bft)
10.02.2010 00:13 -2,9 C 79 % 1008,5 hPa 0,0 l/m 5,1 km/h (1 Bft) O-NO 70 0 min 0 W/m -6,0 C -2,9 C 5,1 km/h (1 Bft)
10.02.2010 00:19 -2,8 C 79 % 1008,5 hPa 0,0 l/m 7,0 km/h (2 Bft) O-NO 70 0 min 0 W/m -5,9 C -3,5 C 7,0 km/h (2 Bft)
10.02.2010 00:24 -2,8 C 79 % 1008,5 hPa 0,0 l/m 9,6 km/h (2 Bft) O-NO 65 0 min 0 W/m -5,9 C -6,2 C 9,6 km/h (2 Bft)
10.02.2010 00:29 -2,7 C 79 % 1008,5 hPa 0,0 l/m 7,8 km/h (2 Bft) NO 35 0 min 0 W/m -5,8 C -4,3 C 7,8 km/h (2 Bft)
10.02.2010 00:34 -2,7 C 79 % 1008,5 hPa 0,0 l/m 7,9 km/h (2 Bft) NO 45 0 min 0 W/m -5,8 C -4,4 C 7,9 km/h (2 Bft)
10.02.2010 00:39 -2,6 C 79 % 1008,5 hPa 0,0 l/m 7,2 km/h (2 Bft) NO 45 0 min 0 W/m -5,7 C -3,5 C 7,2 km/h (2 Bft)
10.02.2010 00:44 -2,6 C 79 % 1008,5 hPa 0,0 l/m 9,7 km/h (2 Bft) NO 50 0 min 0 W/m -5,7 C -6,0 C 9,7 km/h (2 Bft)
10.02.2010 00:49 -2,6 C 79 % 1008,5 hPa 0,0 l/m 4,6 km/h (1 Bft) NO 40 0 min 0 W/m -5,7 C -2,6 C 4,6 km/h (1 Bft)
10.02.2010 00:54 -2,5 C 80 % 1008,5 hPa 0,0 l/m 6,7 km/h (2 Bft) NO 45 0 min 0 W/m -5,5 C -2,8 C 6,7 km/h (2 Bft)
10.02.2010 00:59 -2,5 C 80 % 1008,5 hPa 0,0 l/m 6,6 km/h (2 Bft) N-NO 30 0 min 0 W/m -5,5 C -2,7 C 6,6 km/h (2 Bft)
10.02.2010 01:04 -2,5 C 80 % 1008,5 hPa 0,0 l/m 10,5 km/h (2 Bft) N-NO 25 0 min 0 W/m -5,5 C -6,7 C 10,5 km/h (2 Bft)
10.02.2010 01:09 -2,4 C 80 % 1008,5 hPa 0,0 l/m 8,8 km/h (2 Bft) NO 50 0 min 0 W/m -5,4 C -5,0 C 8,8 km/h (2 Bft)
10.02.2010 01:14 -2,4 C 80 % 1008,5 hPa 0,0 l/m 9,0 km/h (2 Bft) NO 45 0 min 0 W/m -5,4 C -5,2 C 9,0 km/h (2 Bft)
10.02.2010 01:19 -2,4 C 80 % 1008,5 hPa 0,0 l/m 9,1 km/h (2 Bft) NO 50 0 min 0 W/m -5,4 C -5,3 C 9,1 km/h (2 Bft)
10.02.2010 01:24 -2,4 C 80 % 1008,5 hPa 0,0 l/m 12,3 km/h (2 Bft) NO 55 0 min 0 W/m -5,4 C -8,0 C 12,3 km/h (2 Bft)
10.02.2010 01:29 -2,4 C 80 % 1008,5 hPa 0,0 l/m 10,6 km/h (2 Bft) NO 50 0 min 0 W/m -5,4 C -6,6 C 10,6 km/h (2 Bft)
10.02.2010 01:34 -2,4 C 80 % 1008,5 hPa 0,0 l/m 12,0 km/h (2 Bft) NO 35 0 min 0 W/m -5,4 C -7,8 C 12,0 km/h (2 Bft)
10.02.2010 01:38 -2,3 C 80 % 1008,5 hPa 0,0 l/m 2,2 km/h (1 Bft) NO 35 0 min 0 W/m -5,3 C -2,3 C 2,2 km/h (1 Bft)
10.02.2010 01:44 -2,2 C 80 % 1008,5 hPa 0,0 l/m 9,0 km/h (2 Bft) O-NO 70 0 min 0 W/m -5,2 C -5,0 C 9,0 km/h (2 Bft)
10.02.2010 01:49 -2,2 C 80 % 1008,5 hPa 0,0 l/m 10,6 km/h (2 Bft) NO 50 0 min 0 W/m -5,2 C -6,4 C 10,6 km/h (2 Bft)
10.02.2010 01:54 -2,2 C 80 % 1008,5 hPa 0,0 l/m 9,3 km/h (2 Bft) NO 45 0 min 0 W/m -5,2 C -5,2 C 9,3 km/h (2 Bft)
10.02.2010 01:59 -2,2 C 80 % 1008,5 hPa 0,0 l/m 8,7 km/h (2 Bft) NO 50 0 min 0 W/m -5,2 C -4,7 C 8,7 km/h (2 Bft)
10.02.2010 02:04 -2,2 C 80 % 1008,5 hPa 0,0 l/m 11,4 km/h (2 Bft) NO 50 0 min 0 W/m -5,2 C -7,1 C 11,4 km/h (2 Bft)
10.02.2010 02:09 -2,2 C 80 % 1008,5 hPa 0,0 l/m 13,7 km/h (3 Bft) O-NO 60 0 min 0 W/m -5,2 C -8,8 C 13,7 km/h (3 Bft)
10.02.2010 02:14 -2,2 C 81 % 1008,5 hPa 0,0 l/m 12,5 km/h (2 Bft) O-NO 60 0 min 0 W/m -5,0 C -7,9 C 12,5 km/h (2 Bft)
10.02.2010 02:19 -2,2 C 81 % 1008,5 hPa 0,0 l/m 7,9 km/h (2 Bft) NO 40 0 min 0 W/m -5,0 C -3,9 C 7,9 km/h (2 Bft)
10.02.2010 02:24 -2,2 C 81 % 1008,5 hPa 0,0 l/m 12,8 km/h (3 Bft) NO 55 0 min 0 W/m -5,0 C -8,1 C 12,8 km/h (3 Bft)
10.02.2010 02:29 -2,2 C 81 % 1008,5 hPa 0,0 l/m 8,3 km/h (2 Bft) O-NO 75 0 min 0 W/m -5,0 C -4,3 C 8,3 km/h (2 Bft)
10.02.2010 02:34 -2,2 C 80 % 1008,5 hPa 0,0 l/m 7,6 km/h (2 Bft) O-NO 65 0 min 0 W/m -5,2 C -3,5 C 7,6 km/h (2 Bft)
10.02.2010 02:39 -2,2 C 81 % 1008,5 hPa 0,0 l/m 8,2 km/h (2 Bft) NO 50 0 min 0 W/m -5,0 C -4,2 C 8,2 km/h (2 Bft)
10.02.2010 02:44 -2,2 C 80 % 1008,5 hPa 0,0 l/m 10,1 km/h (2 Bft) NO 50 0 min 0 W/m -5,2 C -6,0 C 10,1 km/h (2 Bft)
10.02.2010 02:49 -2,2 C 81 % 1008,5 hPa 0,0 l/m 4,0 km/h (1 Bft) NO 45 0 min 0 W/m -5,0 C -2,2 C 4,0 km/h (1 Bft)
10.02.2010 02:53 -2,2 C 80 % 1008,5 hPa 0,0 l/m 4,1 km/h (1 Bft) NO 50 0 min 0 W/m -5,2 C -2,2 C 4,1 km/h (1 Bft)
10.02.2010 02:59 -2,2 C 80 % 1008,5 hPa 0,0 l/m 4,1 km/h (1 Bft) NO 50 0 min 0 W/m -5,2 C -2,2 C 4,1 km/h (1 Bft)
10.02.2010 03:04 -2,2 C 80 % 1008,5 hPa 0,0 l/m 7,0 km/h (2 Bft) O-NO 60 0 min 0 W/m -5,2 C -2,9 C 7,0 km/h (2 Bft)
10.02.2010 03:09 -2,2 C 80 % 1008,5 hPa 0,0 l/m 7,8 km/h (2 Bft) O-NO 70 0 min 0 W/m -5,2 C -3,7 C 7,8 km/h (2 Bft)
10.02.2010 03:14 -2,2 C 80 % 1008,5 hPa 0,0 l/m 6,5 km/h (2 Bft) O-NO 70 0 min 0 W/m -5,2 C -2,3 C 6,5 km/h (2 Bft)
10.02.2010 03:19 -2,2 C 80 % 1008,5 hPa 0,0 l/m 8,4 km/h (2 Bft) NO 35 0 min 0 W/m -5,2 C -4,4 C 8,4 km/h (2 Bft)
10.02.2010 03:24 -2,1 C 80 % 1008,5 hPa 0,0 l/m 7,2 km/h (2 Bft) O-NO 60 0 min 0 W/m -5,1 C -3,0 C 7,2 km/h (2 Bft)
10.02.2010 03:29 -2,1 C 80 % 1008,5 hPa 0,0 l/m 9,7 km/h (2 Bft) O-NO 70 0 min 0 W/m -5,1 C -5,5 C 9,7 km/h (2 Bft)
10.02.2010 03:34 -2,2 C 80 % 1008,5 hPa 0,0 l/m 3,8 km/h (1 Bft) NO 45 0 min 0 W/m -5,2 C -2,2 C 3,8 km/h (1 Bft)
10.02.2010 03:39 -2,2 C 80 % 1008,5 hPa 0,0 l/m 7,0 km/h (2 Bft) NO 50 0 min 0 W/m -5,2 C -2,9 C 7,0 km/h (2 Bft)
10.02.2010 03:44 -2,3 C 81 % 1008,5 hPa 0,0 l/m 6,8 km/h (2 Bft) NO 50 0 min 0 W/m -5,1 C -2,7 C 6,8 km/h (2 Bft)
10.02.2010 03:49 -2,3 C 81 % 1008,5 hPa 0,0 l/m 11,0 km/h (2 Bft) NO 50 0 min 0 W/m -5,1 C -6,8 C 11,0 km/h (2 Bft)
10.02.2010 03:54 -2,3 C 81 % 1008,5 hPa 0,0 l/m 1,9 km/h (1 Bft) NO 35 0 min 0 W/m -5,1 C -2,3 C 1,9 km/h (1 Bft)
10.02.2010 03:59 -2,3 C 81 % 1008,5 hPa 0,0 l/m 4,9 km/h (1 Bft) O-NO 65 0 min 0 W/m -5,1 C -2,3 C 4,9 km/h (1 Bft)
10.02.2010 04:04 -2,3 C 80 % 1008,5 hPa 0,0 l/m 10,5 km/h (2 Bft) NO 55 0 min 0 W/m -5,3 C -6,4 C 10,5 km/h (2 Bft)
10.02.2010 04:09 -2,3 C 80 % 1008,5 hPa 0,0 l/m 6,0 km/h (2 Bft) O-NO 65 0 min 0 W/m -5,3 C -2,3 C 6,0 km/h (2 Bft)
10.02.2010 04:14 -2,2 C 80 % 1008,5 hPa 0,0 l/m 7,8 km/h (2 Bft) O-NO 60 0 min 0 W/m -5,2 C -3,7 C 7,8 km/h (2 Bft)
10.02.2010 04:19 -2,2 C 80 % 1008,5 hPa 0,0 l/m 5,8 km/h (2 Bft) O-SO 115 0 min 0 W/m -5,2 C -2,2 C 5,8 km/h (2 Bft)
10.02.2010 04:24 -2,2 C 80 % 1008,5 hPa 0,0 l/m 3,0 km/h (1 Bft) O 95 0 min 0 W/m -5,2 C -2,2 C 3,0 km/h (1 Bft)
10.02.2010 04:29 -2,2 C 80 % 1008,5 hPa 0,0 l/m 3,3 km/h (1 Bft) N-NO 30 0 min 0 W/m -5,2 C -2,2 C 3,3 km/h (1 Bft)
10.02.2010 04:34 -2,2 C 80 % 1008,5 hPa 0,0 l/m 1,3 km/h (1 Bft) NO 40 0 min 0 W/m -5,2 C -2,2 C 1,3 km/h (1 Bft)
10.02.2010 04:39 -2,2 C 80 % 1008,5 hPa 0,0 l/m 5,4 km/h (2 Bft) O 80 0 min 0 W/m -5,2 C -2,2 C 5,4 km/h (2 Bft)
10.02.2010 04:44 -2,3 C 80 % 1008,5 hPa 0,0 l/m 7,5 km/h (2 Bft) O 85 0 min 0 W/m -5,3 C -3,5 C 7,5 km/h (2 Bft)
10.02.2010 04:49 -2,2 C 80 % 1008,5 hPa 0,0 l/m 3,1 km/h (1 Bft) O-NO 70 0 min 0 W/m -5,2 C -2,2 C 3,1 km/h (1 Bft)
10.02.2010 04:54 -2,2 C 81 % 1008,5 hPa 0,0 l/m 7,5 km/h (2 Bft) O-NO 65 0 min 0 W/m -5,0 C -3,4 C 7,5 km/h (2 Bft)
10.02.2010 04:59 -2,2 C 81 % 1008,5 hPa 0,0 l/m 1,7 km/h (1 Bft) NO 35 0 min 0 W/m -5,0 C -2,2 C 1,7 km/h (1 Bft)
10.02.2010 05:04 -2,2 C 81 % 1008,5 hPa 0,0 l/m 6,1 km/h (2 Bft) NO 45 0 min 0 W/m -5,0 C -2,2 C 6,1 km/h (2 Bft)
10.02.2010 05:09 -2,1 C 81 % 1008,5 hPa 0,0 l/m 12,5 km/h (2 Bft) NO 50 0 min 0 W/m -4,9 C -7,8 C 12,5 km/h (2 Bft)
10.02.2010 05:14 -2,0 C 82 % 1008,5 hPa 0,0 l/m 6,0 km/h (2 Bft) O-NO 75 0 min 0 W/m -4,7 C -2,0 C 6,0 km/h (2 Bft)
10.02.2010 05:19 -2,1 C 82 % 1008,5 hPa 0,0 l/m 6,4 km/h (2 Bft) NO 55 0 min 0 W/m -4,7 C -2,1 C 6,4 km/h (2 Bft)
10.02.2010 05:24 -2,1 C 82 % 1008,5 hPa 0,0 l/m 7,2 km/h (2 Bft) NO 50 0 min 0 W/m -4,7 C -3,0 C 7,2 km/h (2 Bft)
10.02.2010 05:29 -2,1 C 82 % 1008,5 hPa 0,0 l/m 8,5 km/h (2 Bft) O-NO 60 0 min 0 W/m -4,7 C -4,4 C 8,5 km/h (2 Bft)
10.02.2010 05:34 -2,0 C 82 % 1008,5 hPa 0,0 l/m 9,3 km/h (2 Bft) O-NO 60 0 min 0 W/m -4,7 C -5,0 C 9,3 km/h (2 Bft)
10.02.2010 05:38 -2,1 C 82 % 1008,5 hPa 0,0 l/m 7,7 km/h (2 Bft) NO 50 0 min 0 W/m -4,7 C -3,5 C 7,7 km/h (2 Bft)
10.02.2010 05:44 -2,1 C 82 % 1008,5 hPa 0,0 l/m 13,1 km/h (3 Bft) NO 50 0 min 0 W/m -4,7 C -8,2 C 13,1 km/h (3 Bft)
10.02.2010 05:49 -2,1 C 82 % 1008,5 hPa 0,0 l/m 9,1 km/h (2 Bft) NO 55 0 min 0 W/m -4,7 C -4,9 C 9,1 km/h (2 Bft)
10.02.2010 05:54 -2,2 C 82 % 1009,5 hPa 0,0 l/m 10,9 km/h (2 Bft) NO 55 0 min 0 W/m -4,8 C -6,7 C 10,9 km/h (2 Bft)
10.02.2010 05:59 -2,2 C 82 % 1009,5 hPa 0,0 l/m 8,2 km/h (2 Bft) NO 55 0 min 0 W/m -4,8 C -4,2 C 8,2 km/h (2 Bft)
10.02.2010 06:04 -2,2 C 82 % 1009,5 hPa 0,0 l/m 8,7 km/h (2 Bft) O-NO 70 0 min 0 W/m -4,8 C -4,7 C 8,7 km/h (2 Bft)
10.02.2010 06:09 -2,2 C 82 % 1009,5 hPa 0,0 l/m 5,4 km/h (2 Bft) NO 40 0 min 0 W/m -4,8 C -2,2 C 5,4 km/h (2 Bft)
10.02.2010 06:14 -2,2 C 82 % 1009,5 hPa 0,0 l/m 11,5 km/h (2 Bft) NO 55 0 min 0 W/m -4,8 C -7,1 C 11,5 km/h (2 Bft)
10.02.2010 06:19 -2,2 C 82 % 1009,5 hPa 0,0 l/m 6,5 km/h (2 Bft) O-NO 70 0 min 0 W/m -4,8 C -2,3 C 6,5 km/h (2 Bft)
10.02.2010 06:24 -2,2 C 82 % 1009,5 hPa 0,0 l/m 6,5 km/h (2 Bft) O-NO 75 0 min 0 W/m -4,8 C -2,3 C 6,5 km/h (2 Bft)
10.02.2010 06:29 -2,2 C 82 % 1009,5 hPa 0,0 l/m 12,6 km/h (3 Bft) O-NO 75 0 min 0 W/m -4,8 C -8,0 C 12,6 km/h (3 Bft)
10.02.2010 06:34 -2,2 C 82 % 1009,5 hPa 0,0 l/m 10,0 km/h (2 Bft) O-NO 70 0 min 0 W/m -4,8 C -5,9 C 10,0 km/h (2 Bft)
10.02.2010 06:39 -2,2 C 82 % 1009,5 hPa 0,0 l/m 7,4 km/h (2 Bft) O-NO 70 0 min 0 W/m -4,8 C -3,3 C 7,4 km/h (2 Bft)
10.02.2010 06:44 -2,2 C 82 % 1009,5 hPa 0,0 l/m 7,0 km/h (2 Bft) O-NO 70 0 min 0 W/m -4,8 C -2,9 C 7,0 km/h (2 Bft)
10.02.2010 06:49 -2,2 C 82 % 1009,5 hPa 0,0 l/m 1,9 km/h (1 Bft) O 80 0 min 0 W/m -4,8 C -2,2 C 1,9 km/h (1 Bft)
10.02.2010 06:54 -2,2 C 82 % 1009,5 hPa 0,0 l/m 1,6 km/h (1 Bft) O 80 0 min 0 W/m -4,8 C -2,2 C 1,6 km/h (1 Bft)
10.02.2010 06:59 -2,1 C 82 % 1009,5 hPa 0,0 l/m 7,7 km/h (2 Bft) NO 45 0 min 0 W/m -4,7 C -3,5 C 7,7 km/h (2 Bft)
10.02.2010 07:04 -2,1 C 82 % 1009,5 hPa 0,0 l/m 10,8 km/h (2 Bft) NO 45 0 min 0 W/m -4,7 C -6,5 C 10,8 km/h (2 Bft)
10.02.2010 07:09 -2,0 C 82 % 1009,5 hPa 0,0 l/m 9,3 km/h (2 Bft) NO 55 0 min 0 W/m -4,7 C -5,0 C 9,3 km/h (2 Bft)
10.02.2010 07:14 -2,0 C 82 % 1009,5 hPa 0,0 l/m 10,8 km/h (2 Bft) NO 40 0 min 0 W/m -4,7 C -6,3 C 10,8 km/h (2 Bft)
10.02.2010 07:19 -2,1 C 82 % 1009,5 hPa 0,0 l/m 8,4 km/h (2 Bft) O-NO 75 0 min 0 W/m -4,7 C -4,3 C 8,4 km/h (2 Bft)
10.02.2010 07:24 -2,1 C 82 % 1009,5 hPa 0,0 l/m 13,6 km/h (3 Bft) NO 50 0 min 0 W/m -4,7 C -8,6 C 13,6 km/h (3 Bft)
10.02.2010 07:29 -2,1 C 82 % 1009,5 hPa 0,0 l/m 8,8 km/h (2 Bft) NO 40 0 min 0 W/m -4,7 C -4,7 C 8,8 km/h (2 Bft)
10.02.2010 07:34 -2,1 C 82 % 1009,5 hPa 0,0 l/m 9,8 km/h (2 Bft) NO 50 0 min 0 W/m -4,7 C -5,6 C 9,8 km/h (2 Bft)
10.02.2010 07:39 -2,1 C 83 % 1009,5 hPa 0,0 l/m 10,7 km/h (2 Bft) NO 45 0 min 0 W/m -4,6 C -6,4 C 10,7 km/h (2 Bft)
10.02.2010 07:44 -2,1 C 83 % 1009,5 hPa 0,0 l/m 12,9 km/h (3 Bft) NO 45 0 min 0 W/m -4,6 C -8,1 C 12,9 km/h (3 Bft)
10.02.2010 07:49 -2,2 C 83 % 1009,5 hPa 0,0 l/m 12,5 km/h (2 Bft) NO 40 0 min 0 W/m -4,7 C -7,9 C 12,5 km/h (2 Bft)
10.02.2010 07:54 -2,1 C 83 % 1009,5 hPa 0,0 l/m 8,7 km/h (2 Bft) NO 50 0 min 0 W/m -4,6 C -4,6 C 8,7 km/h (2 Bft)
10.02.2010 07:59 -2,2 C 83 % 1009,5 hPa 0,0 l/m 12,5 km/h (2 Bft) NO 50 0 min 0 W/m -4,7 C -7,9 C 12,5 km/h (2 Bft)
10.02.2010 08:04 -2,1 C 83 % 1009,5 hPa 0,0 l/m 14,1 km/h (3 Bft) O-NO 60 0 min 0 W/m -4,6 C -8,9 C 14,1 km/h (3 Bft)
10.02.2010 08:09 -2,1 C 83 % 1009,5 hPa 0,0 l/m 14,7 km/h (3 Bft) NO 45 0 min 0 W/m -4,6 C -9,3 C 14,7 km/h (3 Bft)
10.02.2010 08:14 -2,2 C 84 % 1009,5 hPa 0,0 l/m 17,2 km/h (3 Bft) NO 50 0 min 0 W/m -4,5 C -11,0 C 17,2 km/h (3 Bft)
10.02.2010 08:19 -2,1 C 84 % 1009,5 hPa 0,0 l/m 10,6 km/h (2 Bft) O-NO 60 0 min 0 W/m -4,4 C -6,3 C 10,6 km/h (2 Bft)
10.02.2010 08:24 -2,1 C 84 % 1009,5 hPa 0,0 l/m 12,7 km/h (3 Bft) NO 50 0 min 0 W/m -4,4 C -7,9 C 12,7 km/h (3 Bft)
10.02.2010 08:29 -2,1 C 84 % 1009,5 hPa 0,0 l/m 10,9 km/h (2 Bft) NO 35 0 min 0 W/m -4,4 C -6,5 C 10,9 km/h (2 Bft)
10.02.2010 08:34 -2,0 C 84 % 1009,5 hPa 0,0 l/m 14,2 km/h (3 Bft) NO 55 0 min 0 W/m -4,3 C -8,9 C 14,2 km/h (3 Bft)
10.02.2010 08:39 -2,0 C 84 % 1009,5 hPa 0,0 l/m 18,0 km/h (3 Bft) NO 50 0 min 0 W/m -4,3 C -11,2 C 18,0 km/h (3 Bft)
10.02.2010 08:44 -2,0 C 84 % 1009,5 hPa 0,0 l/m 12,3 km/h (2 Bft) NO 45 0 min 0 W/m -4,3 C -7,5 C 12,3 km/h (2 Bft)
10.02.2010 08:49 -2,0 C 84 % 1009,5 hPa 0,0 l/m 13,0 km/h (3 Bft) NO 45 0 min 0 W/m -4,3 C -8,0 C 13,0 km/h (3 Bft)
10.02.2010 08:54 -2,0 C 84 % 1009,5 hPa 0,0 l/m 18,1 km/h (3 Bft) NO 45 0 min 0 W/m -4,3 C -11,2 C 18,1 km/h (3 Bft)
10.02.2010 08:59 -2,0 C 84 % 1009,5 hPa 0,0 l/m 16,1 km/h (3 Bft) NO 50 0 min 0 W/m -4,3 C -10,1 C 16,1 km/h (3 Bft)
10.02.2010 09:04 -1,9 C 84 % 1009,5 hPa 0,0 l/m 15,5 km/h (3 Bft) NO 50 0 min 0 W/m -4,2 C -9,6 C 15,5 km/h (3 Bft)
10.02.2010 09:08 -1,9 C 84 % 1009,5 hPa 0,0 l/m 22,4 km/h (4 Bft) NO 55 0 min 0 W/m -4,2 C -13,2 C 22,4 km/h (4 Bft)
10.02.2010 09:14 -1,9 C 84 % 1009,5 hPa 0,0 l/m 18,5 km/h (3 Bft) O-NO 70 0 min 0 W/m -4,2 C -11,3 C 18,5 km/h (3 Bft)
10.02.2010 09:19 -1,8 C 84 % 1009,5 hPa 0,0 l/m 17,5 km/h (3 Bft) NO 50 0 min 0 W/m -4,1 C -10,6 C 17,5 km/h (3 Bft)
10.02.2010 09:24 -1,8 C 84 % 1009,5 hPa 0,0 l/m 22,5 km/h (4 Bft) NO 45 0 min 0 W/m -4,1 C -13,1 C 22,5 km/h (4 Bft)
10.02.2010 09:29 -1,8 C 84 % 1009,5 hPa 0,0 l/m 13,8 km/h (3 Bft) NO 45 0 min 0 W/m -4,1 C -8,4 C 13,8 km/h (3 Bft)
10.02.2010 09:34 -1,7 C 84 % 1009,5 hPa 0,0 l/m 16,8 km/h (3 Bft) NO 45 0 min 0 W/m -4,0 C -10,1 C 16,8 km/h (3 Bft)
10.02.2010 09:39 -1,6 C 84 % 1009,5 hPa 0,0 l/m 16,3 km/h (3 Bft) O-NO 70 0 min 0 W/m -3,9 C -9,7 C 16,3 km/h (3 Bft)
10.02.2010 09:44 -1,7 C 84 % 1009,5 hPa 0,0 l/m 16,3 km/h (3 Bft) O-NO 70 0 min 0 W/m -4,0 C -9,8 C 16,3 km/h (3 Bft)
10.02.2010 09:49 -1,6 C 84 % 1009,5 hPa 0,0 l/m 21,4 km/h (4 Bft) O-NO 60 0 min 0 W/m -3,9 C -12,4 C 21,4 km/h (4 Bft)
10.02.2010 09:54 -1,6 C 84 % 1009,5 hPa 0,0 l/m 18,3 km/h (3 Bft) NO 45 0 min 0 W/m -3,9 C -10,8 C 18,3 km/h (3 Bft)
10.02.2010 09:59 -1,6 C 84 % 1009,5 hPa 0,0 l/m 14,2 km/h (3 Bft) NO 50 0 min 0 W/m -3,9 C -8,4 C 14,2 km/h (3 Bft)
10.02.2010 10:04 -1,6 C 84 % 1010,5 hPa 0,0 l/m 21,5 km/h (4 Bft) NO 55 0 min 0 W/m -3,9 C -12,4 C 21,5 km/h (4 Bft)
10.02.2010 10:09 -1,6 C 84 % 1010,5 hPa 0,0 l/m 23,4 km/h (4 Bft) NO 50 0 min 0 W/m -3,9 C -13,2 C 23,4 km/h (4 Bft)
10.02.2010 10:14 -1,6 C 84 % 1010,5 hPa 0,0 l/m 19,6 km/h (3 Bft) NO 55 0 min 0 W/m -3,9 C -11,5 C 19,6 km/h (3 Bft)
10.02.2010 10:19 -1,4 C 84 % 1010,5 hPa 0,0 l/m 16,5 km/h (3 Bft) NO 55 0 min 0 W/m -3,7 C -9,6 C 16,5 km/h (3 Bft)
10.02.2010 10:24 -1,4 C 84 % 1010,5 hPa 0,0 l/m 11,9 km/h (2 Bft) NO 50 0 min 0 W/m -3,7 C -6,5 C 11,9 km/h (2 Bft)
10.02.2010 10:29 -1,2 C 84 % 1010,5 hPa 0,0 l/m 20,6 km/h (4 Bft) O-NO 60 0 min 0 W/m -3,5 C -11,5 C 20,6 km/h (4 Bft)
10.02.2010 10:34 -1,1 C 84 % 1010,5 hPa 0,0 l/m 8,6 km/h (2 Bft) NO 50 0 min 0 W/m -3,4 C -3,4 C 8,6 km/h (2 Bft)
10.02.2010 10:39 -0,9 C 83 % 1010,5 hPa 0,0 l/m 10,7 km/h (2 Bft) NO 55 0 min 0 W/m -3,4 C -5,0 C 10,7 km/h (2 Bft)
10.02.2010 10:44 -0,8 C 83 % 1010,5 hPa 0,0 l/m 17,8 km/h (3 Bft) O-NO 60 0 min 0 W/m -3,3 C -9,6 C 17,8 km/h (3 Bft)
10.02.2010 10:49 -0,8 C 83 % 1010,5 hPa 0,0 l/m 15,7 km/h (3 Bft) NO 55 0 min 0 W/m -3,3 C -8,4 C 15,7 km/h (3 Bft)
10.02.2010 10:54 -0,7 C 83 % 1010,5 hPa 0,0 l/m 12,3 km/h (2 Bft) NO 50 0 min 0 W/m -3,2 C -6,0 C 12,3 km/h (2 Bft)
10.02.2010 10:58 -0,7 C 83 % 1010,5 hPa 0,0 l/m 15,5 km/h (3 Bft) NO 50 0 min 0 W/m -3,2 C -8,1 C 15,5 km/h (3 Bft)
10.02.2010 11:04 -0,6 C 83 % 1010,5 hPa 0,0 l/m 14,8 km/h (3 Bft) NO 55 0 min 0 W/m -3,1 C -7,6 C 14,8 km/h (3 Bft)
10.02.2010 11:09 -0,6 C 82 % 1010,5 hPa 0,0 l/m 17,6 km/h (3 Bft) NO 45 0 min 0 W/m -3,3 C -9,2 C 17,6 km/h (3 Bft)
10.02.2010 11:14 -0,7 C 82 % 1010,5 hPa 0,0 l/m 18,3 km/h (3 Bft) NO 45 0 min 0 W/m -3,4 C -9,7 C 18,3 km/h (3 Bft)
10.02.2010 11:19 -0,6 C 82 % 1010,5 hPa 0,0 l/m 20,4 km/h (4 Bft) NO 40 0 min 0 W/m -3,3 C -10,6 C 20,4 km/h (4 Bft)
10.02.2010 11:24 -0,7 C 82 % 1010,5 hPa 0,0 l/m 17,6 km/h (3 Bft) NO 45 0 min 0 W/m -3,4 C -9,3 C 17,6 km/h (3 Bft)
10.02.2010 11:29 -0,6 C 82 % 1010,5 hPa 0,0 l/m 23,5 km/h (4 Bft) NO 55 0 min 0 W/m -3,3 C -11,9 C 23,5 km/h (4 Bft)
10.02.2010 11:34 -0,6 C 82 % 1010,5 hPa 0,0 l/m 22,3 km/h (4 Bft) NO 55 0 min 0 W/m -3,3 C -11,4 C 22,3 km/h (4 Bft)
10.02.2010 11:39 -0,6 C 82 % 1010,5 hPa 0,0 l/m 16,5 km/h (3 Bft) NO 50 0 min 0 W/m -3,3 C -8,6 C 16,5 km/h (3 Bft)
10.02.2010 11:44 -0,6 C 82 % 1010,5 hPa 0,0 l/m 20,8 km/h (4 Bft) NO 45 0 min 0 W/m -3,3 C -10,8 C 20,8 km/h (4 Bft)
10.02.2010 11:49 -0,5 C 82 % 1010,5 hPa 0,0 l/m 20,8 km/h (4 Bft) NO 55 0 min 0 W/m -3,2 C -10,6 C 20,8 km/h (4 Bft)
10.02.2010 11:54 -0,6 C 82 % 1010,5 hPa 0,0 l/m 19,7 km/h (3 Bft) NO 50 0 min 0 W/m -3,3 C -10,3 C 19,7 km/h (3 Bft)
10.02.2010 11:59 -0,5 C 82 % 1010,5 hPa 0,0 l/m 17,9 km/h (3 Bft) NO 55 0 min 0 W/m -3,2 C -9,2 C 17,9 km/h (3 Bft)
10.02.2010 12:04 -0,5 C 81 % 1011,5 hPa 0,0 l/m 21,4 km/h (4 Bft) NO 45 0 min 0 W/m -3,3 C -10,9 C 21,4 km/h (4 Bft)
10.02.2010 12:08 -0,5 C 81 % 1011,5 hPa 0,0 l/m 19,4 km/h (3 Bft) NO 45 0 min 0 W/m -3,3 C -10,0 C 19,4 km/h (3 Bft)
10.02.2010 12:14 -0,5 C 81 % 1011,5 hPa 0,0 l/m 16,1 km/h (3 Bft) NO 45 0 min 0 W/m -3,3 C -8,2 C 16,1 km/h (3 Bft)
10.02.2010 12:19 -0,6 C 81 % 1011,5 hPa 0,0 l/m 13,2 km/h (3 Bft) NO 45 0 min 0 W/m -3,4 C -6,5 C 13,2 km/h (3 Bft)
10.02.2010 12:24 -0,4 C 81 % 1011,5 hPa 0,0 l/m 16,0 km/h (3 Bft) NO 50 0 min 0 W/m -3,3 C -8,1 C 16,0 km/h (3 Bft)
10.02.2010 12:29 -0,4 C 81 % 1010,5 hPa 0,0 l/m 20,0 km/h (4 Bft) O-NO 65 0 min 0 W/m -3,3 C -10,1 C 20,0 km/h (4 Bft)
10.02.2010 12:34 -0,2 C 81 % 1010,5 hPa 0,0 l/m 19,0 km/h (3 Bft) NO 50 0 min 0 W/m -3,1 C -9,4 C 19,0 km/h (3 Bft)
10.02.2010 12:39 -0,2 C 80 % 1011,5 hPa 0,0 l/m 15,3 km/h (3 Bft) NO 55 0 min 0 W/m -3,2 C -7,4 C 15,3 km/h (3 Bft)
10.02.2010 12:44 -0,2 C 80 % 1011,5 hPa 0,0 l/m 16,3 km/h (3 Bft) NO 55 0 min 0 W/m -3,2 C -8,0 C 16,3 km/h (3 Bft)
10.02.2010 12:49 -0,2 C 79 % 1010,5 hPa 0,0 l/m 16,5 km/h (3 Bft) NO 40 0 min 0 W/m -3,4 C -8,1 C 16,5 km/h (3 Bft)
10.02.2010 12:54 -0,2 C 79 % 1010,5 hPa 0,0 l/m 20,3 km/h (4 Bft) NO 45 0 min 0 W/m -3,4 C -10,0 C 20,3 km/h (4 Bft)
10.02.2010 12:59 -0,2 C 79 % 1011,5 hPa 0,0 l/m 24,1 km/h (4 Bft) NO 50 0 min 0 W/m -3,4 C -11,6 C 24,1 km/h (4 Bft)
10.02.2010 13:04 -0,2 C 80 % 1011,5 hPa 0,0 l/m 14,2 km/h (3 Bft) NO 55 0 min 0 W/m -3,2 C -6,7 C 14,2 km/h (3 Bft)
10.02.2010 13:09 -0,2 C 79 % 1011,5 hPa 0,0 l/m 17,4 km/h (3 Bft) NO 55 0 min 0 W/m -3,4 C -8,6 C 17,4 km/h (3 Bft)
10.02.2010 13:14 -0,2 C 79 % 1010,5 hPa 0,0 l/m 22,1 km/h (4 Bft) NO 45 0 min 0 W/m -3,4 C -10,8 C 22,1 km/h (4 Bft)
10.02.2010 13:19 -0,2 C 79 % 1010,5 hPa 0,0 l/m 22,1 km/h (4 Bft) NO 55 0 min 0 W/m -3,4 C -10,8 C 22,1 km/h (4 Bft)
10.02.2010 13:24 -0,2 C 80 % 1011,5 hPa 0,0 l/m 13,3 km/h (3 Bft) NO 50 0 min 0 W/m -3,2 C -6,1 C 13,3 km/h (3 Bft)
10.02.2010 13:29 0,1 C 79 % 1011,5 hPa 0,0 l/m 24,9 km/h (4 Bft) NO 40 0 min 0 W/m -3,1 C -11,5 C 24,9 km/h (4 Bft)
10.02.2010 13:34 0,1 C 79 % 1011,5 hPa 0,0 l/m 18,5 km/h (3 Bft) NO 50 0 min 0 W/m -3,1 C -8,8 C 18,5 km/h (3 Bft)
10.02.2010 13:39 0,1 C 79 % 1011,5 hPa 0,0 l/m 15,1 km/h (3 Bft) NO 55 0 min 0 W/m -3,1 C -6,9 C 15,1 km/h (3 Bft)
10.02.2010 13:44 0,2 C 79 % 1011,5 hPa 0,0 l/m 21,3 km/h (4 Bft) NO 45 0 min 0 W/m -3,0 C -10,0 C 21,3 km/h (4 Bft)
10.02.2010 13:49 0,3 C 79 % 1011,5 hPa 0,0 l/m 15,1 km/h (3 Bft) NO 50 0 min 0 W/m -2,9 C -6,7 C 15,1 km/h (3 Bft)
10.02.2010 13:54 0,3 C 79 % 1011,5 hPa 0,0 l/m 21,5 km/h (4 Bft) NO 45 0 min 0 W/m -2,9 C -9,9 C 21,5 km/h (4 Bft)
10.02.2010 13:59 0,3 C 79 % 1011,5 hPa 0,0 l/m 25,8 km/h (4 Bft) NO 45 0 min 0 W/m -2,9 C -11,6 C 25,8 km/h (4 Bft)
10.02.2010 14:04 0,3 C 79 % 1011,5 hPa 0,0 l/m 16,8 km/h (3 Bft) NO 50 0 min 0 W/m -2,9 C -7,6 C 16,8 km/h (3 Bft)
10.02.2010 14:09 0,3 C 79 % 1011,5 hPa 0,0 l/m 14,5 km/h (3 Bft) NO 40 0 min 0 W/m -2,9 C -6,3 C 14,5 km/h (3 Bft)
10.02.2010 14:14 0,3 C 79 % 1011,5 hPa 0,0 l/m 17,9 km/h (3 Bft) NO 40 0 min 0 W/m -2,9 C -8,2 C 17,9 km/h (3 Bft)
10.02.2010 14:19 0,3 C 79 % 1010,5 hPa 0,0 l/m 19,5 km/h (3 Bft) O-NO 60 0 min 0 W/m -2,9 C -9,0 C 19,5 km/h (3 Bft)
10.02.2010 14:24 0,3 C 79 % 1010,5 hPa 0,0 l/m 20,2 km/h (4 Bft) NO 45 0 min 0 W/m -2,9 C -9,3 C 20,2 km/h (4 Bft)
10.02.2010 14:29 0,4 C 79 % 1010,5 hPa 0,0 l/m 16,4 km/h (3 Bft) NO 45 0 min 0 W/m -2,8 C -7,3 C 16,4 km/h (3 Bft)
10.02.2010 14:34 0,3 C 79 % 1010,5 hPa 0,0 l/m 27,6 km/h (5 Bft) O-NO 60 0 min 0 W/m -2,9 C -12,2 C 27,6 km/h (5 Bft)
10.02.2010 14:39 0,3 C 79 % 1011,5 hPa 0,0 l/m 22,6 km/h (4 Bft) NO 40 0 min 0 W/m -2,9 C -10,4 C 22,6 km/h (4 Bft)
10.02.2010 14:44 0,3 C 79 % 1011,5 hPa 0,0 l/m 14,1 km/h (3 Bft) NO 50 0 min 0 W/m -2,9 C -6,1 C 14,1 km/h (3 Bft)
10.02.2010 14:49 0,2 C 79 % 1011,5 hPa 0,0 l/m 20,9 km/h (4 Bft) NO 50 0 min 0 W/m -3,0 C -9,8 C 20,9 km/h (4 Bft)
10.02.2010 14:54 0,2 C 79 % 1011,5 hPa 0,0 l/m 21,2 km/h (4 Bft) NO 45 0 min 0 W/m -3,0 C -9,9 C 21,2 km/h (4 Bft)
10.02.2010 14:59 0,1 C 79 % 1011,5 hPa 0,0 l/m 19,8 km/h (3 Bft) NO 45 0 min 0 W/m -3,1 C -9,4 C 19,8 km/h (3 Bft)
10.02.2010 15:04 0,0 C 79 % 1011,5 hPa 0,0 l/m 18,5 km/h (3 Bft) NO 55 0 min 0 W/m -3,2 C -8,9 C 18,5 km/h (3 Bft)
10.02.2010 15:09 -0,2 C 79 % 1011,5 hPa 0,0 l/m 22,0 km/h (4 Bft) NO 50 0 min 0 W/m -3,4 C -10,8 C 22,0 km/h (4 Bft)
10.02.2010 15:14 -0,2 C 79 % 1011,5 hPa 0,0 l/m 23,6 km/h (4 Bft) NO 50 0 min 0 W/m -3,4 C -11,4 C 23,6 km/h (4 Bft)
10.02.2010 15:19 -0,2 C 79 % 1011,5 hPa 0,0 l/m 18,0 km/h (3 Bft) O-NO 60 0 min 0 W/m -3,4 C -8,9 C 18,0 km/h (3 Bft)
10.02.2010 15:24 0,0 C 79 % 1011,5 hPa 0,0 l/m 22,8 km/h (4 Bft) NO 55 0 min 0 W/m -3,2 C -10,9 C 22,8 km/h (4 Bft)
10.02.2010 15:29 0,0 C 79 % 1011,5 hPa 0,0 l/m 15,2 km/h (3 Bft) NO 45 0 min 0 W/m -3,2 C -7,1 C 15,2 km/h (3 Bft)
10.02.2010 15:34 -0,2 C 79 % 1011,5 hPa 0,0 l/m 16,5 km/h (3 Bft) NO 50 0 min 0 W/m -3,4 C -8,1 C 16,5 km/h (3 Bft)
10.02.2010 15:39 -0,2 C 80 % 1011,5 hPa 0,0 l/m 13,3 km/h (3 Bft) NO 50 0 min 0 W/m -3,2 C -6,1 C 13,3 km/h (3 Bft)
10.02.2010 15:44 -0,3 C 80 % 1011,5 hPa 0,0 l/m 18,5 km/h (3 Bft) NO 45 0 min 0 W/m -3,3 C -9,3 C 18,5 km/h (3 Bft)
10.02.2010 15:49 -0,3 C 80 % 1011,5 hPa 0,0 l/m 21,1 km/h (4 Bft) O-NO 60 0 min 0 W/m -3,3 C -10,5 C 21,1 km/h (4 Bft)
10.02.2010 15:54 -0,4 C 80 % 1011,5 hPa 0,0 l/m 15,6 km/h (3 Bft) O-NO 60 0 min 0 W/m -3,4 C -7,8 C 15,6 km/h (3 Bft)
10.02.2010 15:59 -0,4 C 81 % 1011,5 hPa 0,0 l/m 21,3 km/h (4 Bft) NO 50 0 min 0 W/m -3,3 C -10,7 C 21,3 km/h (4 Bft)
10.02.2010 16:04 -0,4 C 81 % 1011,5 hPa 0,0 l/m 15,5 km/h (3 Bft) O-NO 60 0 min 0 W/m -3,3 C -7,8 C 15,5 km/h (3 Bft)
10.02.2010 16:08 -0,5 C 81 % 1011,5 hPa 0,0 l/m 21,5 km/h (4 Bft) NO 45 0 min 0 W/m -3,3 C -11,0 C 21,5 km/h (4 Bft)
10.02.2010 16:14 -0,5 C 81 % 1011,5 hPa 0,0 l/m 19,2 km/h (3 Bft) NO 55 0 min 0 W/m -3,3 C -9,9 C 19,2 km/h (3 Bft)
10.02.2010 16:19 -0,6 C 81 % 1011,5 hPa 0,0 l/m 20,5 km/h (4 Bft) NO 55 0 min 0 W/m -3,4 C -10,6 C 20,5 km/h (4 Bft)
10.02.2010 16:24 -0,7 C 82 % 1011,5 hPa 0,0 l/m 20,2 km/h (4 Bft) O-NO 60 0 min 0 W/m -3,4 C -10,6 C 20,2 km/h (4 Bft)
10.02.2010 16:29 -0,7 C 82 % 1011,5 hPa 0,0 l/m 23,0 km/h (4 Bft) NO 45 0 min 0 W/m -3,4 C -11,9 C 23,0 km/h (4 Bft)
10.02.2010 16:34 -0,8 C 81 % 1011,5 hPa 0,0 l/m 13,6 km/h (3 Bft) NO 40 0 min 0 W/m -3,6 C -7,0 C 13,6 km/h (3 Bft)
10.02.2010 16:39 -0,8 C 81 % 1011,5 hPa 0,0 l/m 21,9 km/h (4 Bft) NO 50 0 min 0 W/m -3,6 C -11,5 C 21,9 km/h (4 Bft)
10.02.2010 16:44 -0,7 C 82 % 1011,5 hPa 0,0 l/m 18,4 km/h (3 Bft) NO 50 0 min 0 W/m -3,4 C -9,7 C 18,4 km/h (3 Bft)
10.02.2010 16:49 -0,8 C 81 % 1011,5 hPa 0,0 l/m 12,0 km/h (2 Bft) NO 50 0 min 0 W/m -3,6 C -5,9 C 12,0 km/h (2 Bft)
10.02.2010 16:54 -0,8 C 81 % 1012,5 hPa 0,0 l/m 15,6 km/h (3 Bft) NO 50 0 min 0 W/m -3,6 C -8,3 C 15,6 km/h (3 Bft)
10.02.2010 16:59 -0,8 C 82 % 1012,5 hPa 0,0 l/m 13,3 km/h (3 Bft) NO 50 0 min 0 W/m -3,5 C -6,8 C 13,3 km/h (3 Bft)
10.02.2010 17:04 -0,8 C 82 % 1012,5 hPa 0,0 l/m 24,6 km/h (4 Bft) NO 55 0 min 0 W/m -3,5 C -12,6 C 24,6 km/h (4 Bft)
10.02.2010 17:09 -0,8 C 82 % 1012,5 hPa 0,0 l/m 19,6 km/h (3 Bft) O-NO 60 0 min 0 W/m -3,5 C -10,5 C 19,6 km/h (3 Bft)
10.02.2010 17:14 -0,9 C 82 % 1012,5 hPa 0,0 l/m 10,3 km/h (2 Bft) NO 35 0 min 0 W/m -3,6 C -4,7 C 10,3 km/h (2 Bft)
10.02.2010 17:19 -0,8 C 82 % 1012,5 hPa 0,0 l/m 15,6 km/h (3 Bft) NO 50 0 min 0 W/m -3,5 C -8,3 C 15,6 km/h (3 Bft)
10.02.2010 17:24 -0,9 C 83 % 1012,5 hPa 0,0 l/m 22,1 km/h (4 Bft) NO 50 0 min 0 W/m -3,4 C -11,8 C 22,1 km/h (4 Bft)
10.02.2010 17:29 -0,9 C 83 % 1012,5 hPa 0,0 l/m 17,5 km/h (3 Bft) O-NO 60 0 min 0 W/m -3,4 C -9,5 C 17,5 km/h (3 Bft)
10.02.2010 17:34 -0,9 C 83 % 1012,5 hPa 0,0 l/m 15,8 km/h (3 Bft) NO 45 0 min 0 W/m -3,4 C -8,6 C 15,8 km/h (3 Bft)
10.02.2010 17:39 -0,9 C 83 % 1012,5 hPa 0,0 l/m 13,4 km/h (3 Bft) NO 40 0 min 0 W/m -3,4 C -7,0 C 13,4 km/h (3 Bft)
10.02.2010 17:44 -0,9 C 84 % 1012,5 hPa 0,0 l/m 16,1 km/h (3 Bft) NO 50 0 min 0 W/m -3,3 C -8,7 C 16,1 km/h (3 Bft)
10.02.2010 17:49 -0,9 C 84 % 1012,5 hPa 0,0 l/m 13,5 km/h (3 Bft) NO 45 0 min 0 W/m -3,3 C -7,1 C 13,5 km/h (3 Bft)
10.02.2010 17:54 -0,9 C 83 % 1012,5 hPa 0,0 l/m 19,6 km/h (3 Bft) NO 45 0 min 0 W/m -3,4 C -10,6 C 19,6 km/h (3 Bft)
10.02.2010 17:59 -0,9 C 84 % 1012,5 hPa 0,0 l/m 11,0 km/h (2 Bft) NO 45 0 min 0 W/m -3,3 C -5,3 C 11,0 km/h (2 Bft)
10.02.2010 18:04 -0,9 C 84 % 1012,5 hPa 0,0 l/m 13,2 km/h (3 Bft) NO 50 0 min 0 W/m -3,3 C -6,9 C 13,2 km/h (3 Bft)
10.02.2010 18:09 -0,9 C 84 % 1012,5 hPa 0,0 l/m 12,8 km/h (3 Bft) NO 50 0 min 0 W/m -3,3 C -6,6 C 12,8 km/h (3 Bft)
10.02.2010 18:14 -0,9 C 84 % 1012,5 hPa 0,0 l/m 11,3 km/h (2 Bft) NO 45 0 min 0 W/m -3,3 C -5,5 C 11,3 km/h (2 Bft)
10.02.2010 18:19 -0,9 C 84 % 1013,5 hPa 0,0 l/m 18,1 km/h (3 Bft) NO 45 0 min 0 W/m -3,3 C -9,8 C 18,1 km/h (3 Bft)
10.02.2010 18:23 -0,9 C 84 % 1013,5 hPa 0,0 l/m 13,5 km/h (3 Bft) NO 45 0 min 0 W/m -3,3 C -7,1 C 13,5 km/h (3 Bft)
10.02.2010 18:29 -0,9 C 84 % 1013,5 hPa 0,0 l/m 18,7 km/h (3 Bft) NO 40 0 min 0 W/m -3,3 C -10,2 C 18,7 km/h (3 Bft)
10.02.2010 18:34 -1,0 C 84 % 1013,5 hPa 0,0 l/m 18,7 km/h (3 Bft) O-NO 60 0 min 0 W/m -3,4 C -10,3 C 18,7 km/h (3 Bft)
10.02.2010 18:39 -1,0 C 84 % 1013,5 hPa 0,0 l/m 20,5 km/h (4 Bft) NO 45 0 min 0 W/m -3,4 C -11,2 C 20,5 km/h (4 Bft)
10.02.2010 18:44 -1,0 C 84 % 1013,5 hPa 0,0 l/m 16,1 km/h (3 Bft) O-NO 60 0 min 0 W/m -3,4 C -8,9 C 16,1 km/h (3 Bft)
10.02.2010 18:49 -1,0 C 84 % 1013,5 hPa 0,0 l/m 9,0 km/h (2 Bft) NO 50 0 min 0 W/m -3,4 C -3,7 C 9,0 km/h (2 Bft)
10.02.2010 18:54 -0,9 C 84 % 1013,5 hPa 0,0 l/m 13,2 km/h (3 Bft) NO 45 0 min 0 W/m -3,3 C -6,9 C 13,2 km/h (3 Bft)
10.02.2010 18:59 -0,9 C 84 % 1013,5 hPa 0,0 l/m 15,8 km/h (3 Bft) O-NO 60 0 min 0 W/m -3,3 C -8,6 C 15,8 km/h (3 Bft)
10.02.2010 19:04 -0,9 C 84 % 1013,5 hPa 0,0 l/m 12,6 km/h (3 Bft) NO 45 0 min 0 W/m -3,3 C -6,5 C 12,6 km/h (3 Bft)
10.02.2010 19:09 -1,0 C 84 % 1013,5 hPa 0,0 l/m 17,1 km/h (3 Bft) NO 45 0 min 0 W/m -3,4 C -9,4 C 17,1 km/h (3 Bft)
10.02.2010 19:14 -1,0 C 84 % 1013,5 hPa 0,0 l/m 16,5 km/h (3 Bft) NO 45 0 min 0 W/m -3,4 C -9,1 C 16,5 km/h (3 Bft)
10.02.2010 19:19 -1,0 C 84 % 1013,5 hPa 0,0 l/m 23,1 km/h (4 Bft) NO 45 0 min 0 W/m -3,4 C -12,3 C 23,1 km/h (4 Bft)
10.02.2010 19:24 -1,0 C 84 % 1013,5 hPa 0,0 l/m 14,9 km/h (3 Bft) NO 45 0 min 0 W/m -3,4 C -8,1 C 14,9 km/h (3 Bft)
10.02.2010 19:29 -1,0 C 84 % 1013,5 hPa 0,0 l/m 15,0 km/h (3 Bft) NO 50 0 min 0 W/m -3,4 C -8,2 C 15,0 km/h (3 Bft)
10.02.2010 19:34 -1,0 C 84 % 1013,5 hPa 0,0 l/m 18,8 km/h (3 Bft) NO 50 0 min 0 W/m -3,4 C -10,3 C 18,8 km/h (3 Bft)
10.02.2010 19:39 -1,0 C 84 % 1013,5 hPa 0,0 l/m 16,7 km/h (3 Bft) NO 45 0 min 0 W/m -3,4 C -9,2 C 16,7 km/h (3 Bft)
10.02.2010 19:44 -1,0 C 84 % 1013,5 hPa 0,0 l/m 19,5 km/h (3 Bft) NO 50 0 min 0 W/m -3,4 C -10,7 C 19,5 km/h (3 Bft)
10.02.2010 19:49 -1,1 C 84 % 1013,5 hPa 0,0 l/m 12,1 km/h (2 Bft) NO 50 0 min 0 W/m -3,4 C -6,3 C 12,1 km/h (2 Bft)
10.02.2010 19:54 -1,1 C 84 % 1013,5 hPa 0,0 l/m 19,4 km/h (3 Bft) NO 45 0 min 0 W/m -3,4 C -10,8 C 19,4 km/h (3 Bft)
10.02.2010 19:59 -1,1 C 84 % 1013,5 hPa 0,0 l/m 19,0 km/h (3 Bft) NO 45 0 min 0 W/m -3,4 C -10,6 C 19,0 km/h (3 Bft)
10.02.2010 20:04 -1,1 C 84 % 1013,5 hPa 0,0 l/m 24,4 km/h (4 Bft) NO 50 0 min 0 W/m -3,4 C -13,0 C 24,4 km/h (4 Bft)
10.02.2010 20:09 -1,1 C 84 % 1013,5 hPa 0,0 l/m 21,0 km/h (4 Bft) NO 50 0 min 0 W/m -3,4 C -11,5 C 21,0 km/h (4 Bft)
10.02.2010 20:14 -1,1 C 84 % 1014,5 hPa 0,0 l/m 16,0 km/h (3 Bft) NO 35 0 min 0 W/m -3,4 C -8,9 C 16,0 km/h (3 Bft)
10.02.2010 20:19 -1,1 C 84 % 1014,5 hPa 0,0 l/m 30,1 km/h (5 Bft) NO 40 0 min 0 W/m -3,4 C -15,0 C 30,1 km/h (5 Bft)
10.02.2010 20:24 -1,2 C 84 % 1014,5 hPa 0,0 l/m 16,0 km/h (3 Bft) NO 35 0 min 0 W/m -3,5 C -9,0 C 16,0 km/h (3 Bft)
10.02.2010 20:29 -1,2 C 85 % 1014,5 hPa 0,0 l/m 13,0 km/h (3 Bft) NO 45 0 min 0 W/m -3,4 C -7,1 C 13,0 km/h (3 Bft)
10.02.2010 20:34 -1,2 C 85 % 1014,5 hPa 0,0 l/m 14,3 km/h (3 Bft) NO 45 0 min 0 W/m -3,4 C -8,0 C 14,3 km/h (3 Bft)
10.02.2010 20:39 -1,2 C 85 % 1014,5 hPa 0,0 l/m 19,1 km/h (3 Bft) NO 45 0 min 0 W/m -3,4 C -10,7 C 19,1 km/h (3 Bft)
10.02.2010 20:44 -1,2 C 84 % 1014,5 hPa 0,0 l/m 27,2 km/h (5 Bft) NO 55 0 min 0 W/m -3,5 C -14,2 C 27,2 km/h (5 Bft)
10.02.2010 20:49 -1,3 C 85 % 1014,5 hPa 0,0 l/m 17,9 km/h (3 Bft) NO 50 0 min 0 W/m -3,5 C -10,2 C 17,9 km/h (3 Bft)
10.02.2010 20:54 -1,3 C 85 % 1014,5 hPa 0,0 l/m 17,3 km/h (3 Bft) NO 55 0 min 0 W/m -3,5 C -9,9 C 17,3 km/h (3 Bft)
10.02.2010 20:59 -1,3 C 85 % 1014,5 hPa 0,0 l/m 25,0 km/h (4 Bft) NO 55 0 min 0 W/m -3,5 C -13,5 C 25,0 km/h (4 Bft)
10.02.2010 21:04 -1,2 C 85 % 1014,5 hPa 0,0 l/m 21,3 km/h (4 Bft) NO 50 0 min 0 W/m -3,4 C -11,8 C 21,3 km/h (4 Bft)
10.02.2010 21:09 -1,2 C 85 % 1014,5 hPa 0,0 l/m 17,6 km/h (3 Bft) NO 55 0 min 0 W/m -3,4 C -10,0 C 17,6 km/h (3 Bft)
10.02.2010 21:14 -1,2 C 85 % 1014,5 hPa 0,0 l/m 13,7 km/h (3 Bft) NO 45 0 min 0 W/m -3,4 C -7,6 C 13,7 km/h (3 Bft)
10.02.2010 21:19 -1,3 C 85 % 1014,5 hPa 0,0 l/m 24,1 km/h (4 Bft) NO 45 0 min 0 W/m -3,5 C -13,1 C 24,1 km/h (4 Bft)
10.02.2010 21:24 -1,3 C 85 % 1014,5 hPa 0,0 l/m 26,5 km/h (4 Bft) NO 50 0 min 0 W/m -3,5 C -14,0 C 26,5 km/h (4 Bft)
10.02.2010 21:29 -1,4 C 85 % 1014,5 hPa 0,0 l/m 20,2 km/h (4 Bft) NO 45 0 min 0 W/m -3,6 C -11,5 C 20,2 km/h (4 Bft)
10.02.2010 21:34 -1,4 C 85 % 1014,5 hPa 0,0 l/m 18,7 km/h (3 Bft) NO 50 0 min 0 W/m -3,6 C -10,8 C 18,7 km/h (3 Bft)
10.02.2010 21:39 -1,3 C 85 % 1014,5 hPa 0,0 l/m 17,9 km/h (3 Bft) NO 40 0 min 0 W/m -3,5 C -10,2 C 17,9 km/h (3 Bft)
10.02.2010 21:44 -1,3 C 85 % 1014,5 hPa 0,0 l/m 24,0 km/h (4 Bft) NO 55 0 min 0 W/m -3,5 C -13,1 C 24,0 km/h (4 Bft)
10.02.2010 21:49 -1,3 C 85 % 1014,5 hPa 0,0 l/m 23,0 km/h (4 Bft) O-NO 65 0 min 0 W/m -3,5 C -12,7 C 23,0 km/h (4 Bft)
10.02.2010 21:54 -1,3 C 85 % 1014,5 hPa 0,0 l/m 24,7 km/h (4 Bft) O-NO 65 0 min 0 W/m -3,5 C -13,4 C 24,7 km/h (4 Bft)
10.02.2010 21:59 -1,3 C 85 % 1014,5 hPa 0,0 l/m 25,3 km/h (4 Bft) O-NO 60 0 min 0 W/m -3,5 C -13,6 C 25,3 km/h (4 Bft)
10.02.2010 22:04 -1,3 C 85 % 1014,5 hPa 0,0 l/m 16,5 km/h (3 Bft) NO 50 0 min 0 W/m -3,5 C -9,5 C 16,5 km/h (3 Bft)
10.02.2010 22:09 -1,4 C 84 % 1014,5 hPa 0,0 l/m 22,6 km/h (4 Bft) O-NO 60 0 min 0 W/m -3,7 C -12,6 C 22,6 km/h (4 Bft)
10.02.2010 22:14 -1,4 C 84 % 1014,5 hPa 0,0 l/m 23,2 km/h (4 Bft) NO 55 0 min 0 W/m -3,7 C -12,9 C 23,2 km/h (4 Bft)
10.02.2010 22:19 -1,4 C 84 % 1014,5 hPa 0,0 l/m 25,7 km/h (4 Bft) NO 45 0 min 0 W/m -3,7 C -13,9 C 25,7 km/h (4 Bft)
10.02.2010 22:24 -1,4 C 84 % 1014,5 hPa 0,0 l/m 26,8 km/h (4 Bft) NO 45 0 min 0 W/m -3,7 C -14,3 C 26,8 km/h (4 Bft)
10.02.2010 22:29 -1,4 C 84 % 1014,5 hPa 0,0 l/m 21,3 km/h (4 Bft) NO 45 0 min 0 W/m -3,7 C -12,1 C 21,3 km/h (4 Bft)
10.02.2010 22:33 -1,3 C 84 % 1014,5 hPa 0,0 l/m 16,7 km/h (3 Bft) O-NO 60 0 min 0 W/m -3,6 C -9,6 C 16,7 km/h (3 Bft)
10.02.2010 22:39 -1,3 C 84 % 1014,5 hPa 0,0 l/m 23,5 km/h (4 Bft) O-NO 60 0 min 0 W/m -3,6 C -12,9 C 23,5 km/h (4 Bft)
10.02.2010 22:44 -1,3 C 84 % 1014,5 hPa 0,0 l/m 18,3 km/h (3 Bft) NO 45 0 min 0 W/m -3,6 C -10,5 C 18,3 km/h (3 Bft)
10.02.2010 22:49 -1,3 C 84 % 1014,5 hPa 0,0 l/m 17,8 km/h (3 Bft) NO 45 0 min 0 W/m -3,6 C -10,2 C 17,8 km/h (3 Bft)
10.02.2010 22:54 -1,3 C 85 % 1014,5 hPa 0,0 l/m 17,8 km/h (3 Bft) NO 50 0 min 0 W/m -3,5 C -10,2 C 17,8 km/h (3 Bft)
10.02.2010 22:59 -1,3 C 85 % 1014,5 hPa 0,0 l/m 18,9 km/h (3 Bft) NO 45 0 min 0 W/m -3,5 C -10,8 C 18,9 km/h (3 Bft)
10.02.2010 23:04 -1,3 C 85 % 1014,5 hPa 0,0 l/m 17,2 km/h (3 Bft) NO 40 0 min 0 W/m -3,5 C -9,9 C 17,2 km/h (3 Bft)
10.02.2010 23:09 -1,3 C 84 % 1014,5 hPa 0,0 l/m 23,3 km/h (4 Bft) O-NO 60 0 min 0 W/m -3,6 C -12,8 C 23,3 km/h (4 Bft)
10.02.2010 23:14 -1,3 C 84 % 1014,5 hPa 0,0 l/m 20,8 km/h (4 Bft) NO 45 0 min 0 W/m -3,6 C -11,7 C 20,8 km/h (4 Bft)
10.02.2010 23:19 -1,3 C 84 % 1014,5 hPa 0,0 l/m 17,0 km/h (3 Bft) NO 40 0 min 0 W/m -3,6 C -9,7 C 17,0 km/h (3 Bft)
10.02.2010 23:23 -1,3 C 84 % 1014,5 hPa 0,0 l/m 25,0 km/h (4 Bft) NO 50 0 min 0 W/m -3,6 C -13,5 C 25,0 km/h (4 Bft)
10.02.2010 23:29 -1,3 C 85 % 1014,5 hPa 0,0 l/m 18,3 km/h (3 Bft) NO 45 0 min 0 W/m -3,5 C -10,5 C 18,3 km/h (3 Bft)
10.02.2010 23:34 -1,3 C 84 % 1014,5 hPa 0,0 l/m 17,3 km/h (3 Bft) NO 40 0 min 0 W/m -3,6 C -9,9 C 17,3 km/h (3 Bft)
10.02.2010 23:39 -1,3 C 84 % 1014,5 hPa 0,0 l/m 23,4 km/h (4 Bft) NO 45 0 min 0 W/m -3,6 C -12,8 C 23,4 km/h (4 Bft)
10.02.2010 23:44 -1,3 C 84 % 1014,5 hPa 0,0 l/m 18,7 km/h (3 Bft) NO 50 0 min 0 W/m -3,6 C -10,7 C 18,7 km/h (3 Bft)
10.02.2010 23:49 -1,3 C 84 % 1014,5 hPa 0,0 l/m 22,9 km/h (4 Bft) NO 45 0 min 0 W/m -3,6 C -12,6 C 22,9 km/h (4 Bft)
10.02.2010 23:54 -1,3 C 84 % 1014,5 hPa 0,0 l/m 22,9 km/h (4 Bft) NO 45 0 min 0 W/m -3,6 C -12,6 C 22,9 km/h (4 Bft)
10.02.2010 23:59 -1,3 C 84 % 1014,5 hPa 0,0 l/m 21,5 km/h (4 Bft) N-NO 25 0 min 0 W/m -3,6 C -12,0 C 21,5 km/h (4 Bft)
_ Min-Zeit 00:03 00:03 00:03 - 04:34 - - - - 00:03 20:19 04:34
Minimum _ -3,1 C 78 % 1008,5 hPa - 1,3 km/h (1 Bft) - - - - -6,4 C -15,0 C 1,3 km/h (1 Bft)
_ Max-Zeit 14:29 20:29 20:14 00:03 20:19 - - 00:03 00:03 14:29 05:14 20:19
Maximum _ 0,4 C 85 % 1014,5 hPa 0,0 l/m 30,1 km/h
NO (5 Bft)
- - 0 min 0 W/m -2,8 C -2,0 C 30,1 km/h
NO (5 Bft)
Durchschnitt _ -1,4 C 82 % 1011,0 hPa #0,0 l/m 14,9 km/h (3 Bft) NO - #0 min. 0 W/m -4,0 C -8,0 C 14,9 km/h (3 Bft)
copyright by Holger Just